sensor_id;sensor_type;location;lat;lon;timestamp;temperature;humidity
27128;DHT22;14660;49.008;8.390;2023-02-21T00:01:04;10.10;99.90
27128;DHT22;14660;49.008;8.390;2023-02-21T00:03:50;10.10;99.90
27128;DHT22;14660;49.008;8.390;2023-02-21T00:06:36;10.10;99.90
27128;DHT22;14660;49.008;8.390;2023-02-21T00:09:21;9.90;99.90
27128;DHT22;14660;49.008;8.390;2023-02-21T00:12:06;10.00;99.90
27128;DHT22;14660;49.008;8.390;2023-02-21T00:14:53;9.90;99.90
27128;DHT22;14660;49.008;8.390;2023-02-21T00:17:38;9.90;99.90
27128;DHT22;14660;49.008;8.390;2023-02-21T00:20:24;9.90;99.90
27128;DHT22;14660;49.008;8.390;2023-02-21T00:23:10;9.90;99.90
27128;DHT22;14660;49.008;8.390;2023-02-21T00:25:56;9.90;99.90
27128;DHT22;14660;49.008;8.390;2023-02-21T00:28:42;9.90;99.90
27128;DHT22;14660;49.008;8.390;2023-02-21T00:31:27;9.90;99.90
27128;DHT22;14660;49.008;8.390;2023-02-21T00:34:13;9.90;99.90
27128;DHT22;14660;49.008;8.390;2023-02-21T00:36:58;10.00;99.90
27128;DHT22;14660;49.008;8.390;2023-02-21T00:39:44;9.80;99.90
27128;DHT22;14660;49.008;8.390;2023-02-21T00:42:30;9.80;99.90
27128;DHT22;14660;49.008;8.390;2023-02-21T00:45:15;9.70;99.90
27128;DHT22;14660;49.008;8.390;2023-02-21T00:48:01;9.70;99.90
27128;DHT22;14660;49.008;8.390;2023-02-21T00:50:46;9.70;99.90
27128;DHT22;14660;49.008;8.390;2023-02-21T00:53:31;9.70;99.90
27128;DHT22;14660;49.008;8.390;2023-02-21T00:56:17;9.70;99.90
27128;DHT22;14660;49.008;8.390;2023-02-21T00:59:03;9.70;99.90
27128;DHT22;14660;49.008;8.390;2023-02-21T01:01:48;9.70;99.90
27128;DHT22;14660;49.008;8.390;2023-02-21T01:04:33;9.80;99.90
27128;DHT22;14660;49.008;8.390;2023-02-21T01:07:18;9.70;99.90
27128;DHT22;14660;49.008;8.390;2023-02-21T01:10:03;9.70;99.90
27128;DHT22;14660;49.008;8.390;2023-02-21T01:12:50;9.70;99.90
27128;DHT22;14660;49.008;8.390;2023-02-21T01:15:36;9.70;99.90
27128;DHT22;14660;49.008;8.390;2023-02-21T01:18:22;9.60;99.90
27128;DHT22;14660;49.008;8.390;2023-02-21T01:21:15;9.80;99.90
27128;DHT22;14660;49.008;8.390;2023-02-21T01:24:02;9.60;99.90
27128;DHT22;14660;49.008;8.390;2023-02-21T01:26:57;9.60;99.90
27128;DHT22;14660;49.008;8.390;2023-02-21T01:29:43;9.50;99.90
27128;DHT22;14660;49.008;8.390;2023-02-21T01:32:28;9.60;99.90
27128;DHT22;14660;49.008;8.390;2023-02-21T01:35:14;9.60;99.90
27128;DHT22;14660;49.008;8.390;2023-02-21T01:38:00;9.50;99.90
27128;DHT22;14660;49.008;8.390;2023-02-21T01:40:46;9.60;99.90
27128;DHT22;14660;49.008;8.390;2023-02-21T01:43:31;9.50;99.90
27128;DHT22;14660;49.008;8.390;2023-02-21T01:46:19;9.60;99.90
27128;DHT22;14660;49.008;8.390;2023-02-21T01:49:14;9.50;99.90
27128;DHT22;14660;49.008;8.390;2023-02-21T01:52:02;9.40;99.90
27128;DHT22;14660;49.008;8.390;2023-02-21T01:54:52;9.40;99.90
27128;DHT22;14660;49.008;8.390;2023-02-21T01:57:37;9.50;99.90
27128;DHT22;14660;49.008;8.390;2023-02-21T02:00:33;9.40;99.90
27128;DHT22;14660;49.008;8.390;2023-02-21T02:03:19;9.40;99.90
27128;DHT22;14660;49.008;8.390;2023-02-21T02:06:07;9.40;99.90
27128;DHT22;14660;49.008;8.390;2023-02-21T02:08:53;9.40;99.90
27128;DHT22;14660;49.008;8.390;2023-02-21T02:38:39;9.10;99.90
27128;DHT22;14660;49.008;8.390;2023-02-21T02:47:18;8.90;99.90
27128;DHT22;14660;49.008;8.390;2023-02-21T02:49:49;8.80;99.90
27128;DHT22;14660;49.008;8.390;2023-02-21T02:52:17;8.80;99.90
27128;DHT22;14660;49.008;8.390;2023-02-21T02:54:43;8.80;99.90
27128;DHT22;14660;49.008;8.390;2023-02-21T02:57:10;8.80;99.90
27128;DHT22;14660;49.008;8.390;2023-02-21T02:59:41;8.70;99.90
27128;DHT22;14660;49.008;8.390;2023-02-21T03:11:22;8.70;99.90
27128;DHT22;14660;49.008;8.390;2023-02-21T03:14:06;8.70;99.90
27128;DHT22;14660;49.008;8.390;2023-02-21T03:16:46;8.70;99.90
27128;DHT22;14660;49.008;8.390;2023-02-21T03:19:24;8.60;99.90
27128;DHT22;14660;49.008;8.390;2023-02-21T03:22:00;8.60;99.90
27128;DHT22;14660;49.008;8.390;2023-02-21T03:24:28;8.60;99.90
27128;DHT22;14660;49.008;8.390;2023-02-21T03:26:59;8.60;99.90
27128;DHT22;14660;49.008;8.390;2023-02-21T03:29:28;8.60;99.90
27128;DHT22;14660;49.008;8.390;2023-02-21T03:32:11;8.50;99.90
27128;DHT22;14660;49.008;8.390;2023-02-21T03:34:39;8.50;99.90
27128;DHT22;14660;49.008;8.390;2023-02-21T03:37:09;8.50;99.90
27128;DHT22;14660;49.008;8.390;2023-02-21T03:39:36;8.50;99.90
27128;DHT22;14660;49.008;8.390;2023-02-21T03:42:03;8.60;99.90
27128;DHT22;14660;49.008;8.390;2023-02-21T03:44:31;8.50;99.90
27128;DHT22;14660;49.008;8.390;2023-02-21T03:46:57;8.40;99.90
27128;DHT22;14660;49.008;8.390;2023-02-21T03:49:24;8.40;99.90
27128;DHT22;14660;49.008;8.390;2023-02-21T03:51:51;8.30;99.90
27128;DHT22;14660;49.008;8.390;2023-02-21T03:54:18;8.20;99.90
27128;DHT22;14660;49.008;8.390;2023-02-21T03:56:45;8.20;99.90
27128;DHT22;14660;49.008;8.390;2023-02-21T03:59:12;8.20;99.90
27128;DHT22;14660;49.008;8.390;2023-02-21T04:01:39;8.20;99.90
27128;DHT22;14660;49.008;8.390;2023-02-21T04:04:06;8.30;99.90
27128;DHT22;14660;49.008;8.390;2023-02-21T04:06:33;8.30;99.90
27128;DHT22;14660;49.008;8.390;2023-02-21T04:09:00;8.30;99.90
27128;DHT22;14660;49.008;8.390;2023-02-21T04:11:26;8.40;99.90
27128;DHT22;14660;49.008;8.390;2023-02-21T04:13:54;8.30;99.90
27128;DHT22;14660;49.008;8.390;2023-02-21T04:16:21;8.20;99.90
27128;DHT22;14660;49.008;8.390;2023-02-21T04:18:48;8.30;99.90
27128;DHT22;14660;49.008;8.390;2023-02-21T04:21:18;8.30;99.90
27128;DHT22;14660;49.008;8.390;2023-02-21T04:23:45;8.30;99.90
27128;DHT22;14660;49.008;8.390;2023-02-21T04:26:11;8.30;99.90
27128;DHT22;14660;49.008;8.390;2023-02-21T04:28:40;8.40;99.90
27128;DHT22;14660;49.008;8.390;2023-02-21T04:31:06;8.30;99.90
27128;DHT22;14660;49.008;8.390;2023-02-21T04:33:33;8.30;99.90
27128;DHT22;14660;49.008;8.390;2023-02-21T04:36:01;8.30;99.90
27128;DHT22;14660;49.008;8.390;2023-02-21T04:38:28;8.30;99.90
27128;DHT22;14660;49.008;8.390;2023-02-21T04:40:55;8.20;99.90
27128;DHT22;14660;49.008;8.390;2023-02-21T04:43:22;8.10;99.90
27128;DHT22;14660;49.008;8.390;2023-02-21T04:45:50;8.10;99.90
27128;DHT22;14660;49.008;8.390;2023-02-21T04:48:17;8.20;99.90
27128;DHT22;14660;49.008;8.390;2023-02-21T04:50:42;8.20;99.90
27128;DHT22;14660;49.008;8.390;2023-02-21T04:53:09;8.10;99.90
27128;DHT22;14660;49.008;8.390;2023-02-21T04:55:36;8.00;99.90
27128;DHT22;14660;49.008;8.390;2023-02-21T04:58:03;8.00;99.90
27128;DHT22;14660;49.008;8.390;2023-02-21T05:00:28;8.00;99.90
27128;DHT22;14660;49.008;8.390;2023-02-21T05:02:56;8.00;99.90
27128;DHT22;14660;49.008;8.390;2023-02-21T05:05:24;8.00;99.90
27128;DHT22;14660;49.008;8.390;2023-02-21T05:07:50;8.00;99.90
27128;DHT22;14660;49.008;8.390;2023-02-21T05:10:18;8.10;99.90
27128;DHT22;14660;49.008;8.390;2023-02-21T05:12:45;8.10;99.90
27128;DHT22;14660;49.008;8.390;2023-02-21T05:15:12;8.10;99.90
27128;DHT22;14660;49.008;8.390;2023-02-21T05:17:38;8.10;99.90
27128;DHT22;14660;49.008;8.390;2023-02-21T05:20:06;8.00;99.90
27128;DHT22;14660;49.008;8.390;2023-02-21T05:22:40;7.90;99.90
27128;DHT22;14660;49.008;8.390;2023-02-21T05:25:14;7.90;99.90
27128;DHT22;14660;49.008;8.390;2023-02-21T05:27:41;7.90;99.90
27128;DHT22;14660;49.008;8.390;2023-02-21T05:30:09;8.00;99.90
27128;DHT22;14660;49.008;8.390;2023-02-21T05:32:37;8.00;99.90
27128;DHT22;14660;49.008;8.390;2023-02-21T05:35:06;7.90;99.90
27128;DHT22;14660;49.008;8.390;2023-02-21T05:37:33;7.80;99.90
27128;DHT22;14660;49.008;8.390;2023-02-21T05:40:00;7.80;99.90
27128;DHT22;14660;49.008;8.390;2023-02-21T05:42:26;7.80;99.90
27128;DHT22;14660;49.008;8.390;2023-02-21T05:44:53;7.80;99.90
27128;DHT22;14660;49.008;8.390;2023-02-21T05:47:19;7.80;99.90
27128;DHT22;14660;49.008;8.390;2023-02-21T05:49:45;7.80;99.90
27128;DHT22;14660;49.008;8.390;2023-02-21T05:52:14;7.80;99.90
27128;DHT22;14660;49.008;8.390;2023-02-21T05:54:41;7.90;99.90
27128;DHT22;14660;49.008;8.390;2023-02-21T05:57:08;7.80;99.90
27128;DHT22;14660;49.008;8.390;2023-02-21T05:59:36;7.80;99.90
27128;DHT22;14660;49.008;8.390;2023-02-21T06:02:03;7.70;99.90
27128;DHT22;14660;49.008;8.390;2023-02-21T06:04:30;7.70;99.90
27128;DHT22;14660;49.008;8.390;2023-02-21T06:06:56;7.70;99.90
27128;DHT22;14660;49.008;8.390;2023-02-21T06:09:23;7.60;99.90
27128;DHT22;14660;49.008;8.390;2023-02-21T06:11:54;7.60;99.90
27128;DHT22;14660;49.008;8.390;2023-02-21T06:14:21;7.60;99.90
27128;DHT22;14660;49.008;8.390;2023-02-21T06:16:48;7.60;99.90
27128;DHT22;14660;49.008;8.390;2023-02-21T06:19:15;7.50;99.90
27128;DHT22;14660;49.008;8.390;2023-02-21T06:21:42;7.50;99.90
27128;DHT22;14660;49.008;8.390;2023-02-21T06:24:11;7.40;99.90
27128;DHT22;14660;49.008;8.390;2023-02-21T06:26:38;7.50;99.90
27128;DHT22;14660;49.008;8.390;2023-02-21T06:29:06;7.50;99.90
27128;DHT22;14660;49.008;8.390;2023-02-21T06:31:33;7.50;99.90
27128;DHT22;14660;49.008;8.390;2023-02-21T06:34:01;7.50;99.90
27128;DHT22;14660;49.008;8.390;2023-02-21T06:36:29;7.50;99.90
27128;DHT22;14660;49.008;8.390;2023-02-21T06:38:56;7.50;99.90
27128;DHT22;14660;49.008;8.390;2023-02-21T06:41:27;7.60;99.90
27128;DHT22;14660;49.008;8.390;2023-02-21T06:43:57;7.50;99.90
27128;DHT22;14660;49.008;8.390;2023-02-21T06:46:26;7.50;99.90
27128;DHT22;14660;49.008;8.390;2023-02-21T06:48:53;7.50;99.90
27128;DHT22;14660;49.008;8.390;2023-02-21T06:51:20;7.60;99.90
27128;DHT22;14660;49.008;8.390;2023-02-21T06:53:50;7.60;99.90
27128;DHT22;14660;49.008;8.390;2023-02-21T06:56:16;7.60;99.90
27128;DHT22;14660;49.008;8.390;2023-02-21T06:58:43;7.60;99.90
27128;DHT22;14660;49.008;8.390;2023-02-21T07:01:10;7.50;99.90
27128;DHT22;14660;49.008;8.390;2023-02-21T07:03:46;7.50;99.90
27128;DHT22;14660;49.008;8.390;2023-02-21T07:06:13;7.60;99.90
27128;DHT22;14660;49.008;8.390;2023-02-21T07:08:42;7.50;99.90
27128;DHT22;14660;49.008;8.390;2023-02-21T07:11:08;7.50;99.90
27128;DHT22;14660;49.008;8.390;2023-02-21T07:13:36;7.60;99.90
27128;DHT22;14660;49.008;8.390;2023-02-21T07:16:03;7.60;99.90
27128;DHT22;14660;49.008;8.390;2023-02-21T07:18:32;7.60;99.90
27128;DHT22;14660;49.008;8.390;2023-02-21T07:20:59;7.70;99.90
27128;DHT22;14660;49.008;8.390;2023-02-21T07:23:26;7.80;99.90
27128;DHT22;14660;49.008;8.390;2023-02-21T07:25:51;7.80;99.90
27128;DHT22;14660;49.008;8.390;2023-02-21T07:28:18;7.90;99.90
27128;DHT22;14660;49.008;8.390;2023-02-21T07:30:45;7.90;99.90
27128;DHT22;14660;49.008;8.390;2023-02-21T07:33:12;7.90;99.90
27128;DHT22;14660;49.008;8.390;2023-02-21T07:35:39;7.90;99.90
27128;DHT22;14660;49.008;8.390;2023-02-21T07:38:05;8.00;99.90
27128;DHT22;14660;49.008;8.390;2023-02-21T07:40:32;8.10;99.90
27128;DHT22;14660;49.008;8.390;2023-02-21T07:42:59;8.10;99.90
27128;DHT22;14660;49.008;8.390;2023-02-21T07:45:25;8.30;99.90
27128;DHT22;14660;49.008;8.390;2023-02-21T07:47:53;8.40;99.90
27128;DHT22;14660;49.008;8.390;2023-02-21T07:50:20;8.50;99.90
27128;DHT22;14660;49.008;8.390;2023-02-21T07:52:50;8.50;99.90
27128;DHT22;14660;49.008;8.390;2023-02-21T07:55:17;8.60;99.90
27128;DHT22;14660;49.008;8.390;2023-02-21T07:57:44;8.60;99.90
27128;DHT22;14660;49.008;8.390;2023-02-21T08:00:11;8.70;99.90
27128;DHT22;14660;49.008;8.390;2023-02-21T08:02:39;8.70;99.90
27128;DHT22;14660;49.008;8.390;2023-02-21T08:05:08;8.90;99.90
27128;DHT22;14660;49.008;8.390;2023-02-21T08:07:35;8.90;99.90
27128;DHT22;14660;49.008;8.390;2023-02-21T08:10:02;8.90;99.90
27128;DHT22;14660;49.008;8.390;2023-02-21T08:12:29;8.90;99.90
27128;DHT22;14660;49.008;8.390;2023-02-21T08:14:56;9.00;99.90
27128;DHT22;14660;49.008;8.390;2023-02-21T08:17:24;9.00;99.90
27128;DHT22;14660;49.008;8.390;2023-02-21T08:19:51;9.00;99.90
27128;DHT22;14660;49.008;8.390;2023-02-21T08:22:18;9.00;99.90
27128;DHT22;14660;49.008;8.390;2023-02-21T08:24:57;9.00;99.90
27128;DHT22;14660;49.008;8.390;2023-02-21T08:27:25;9.10;99.90
27128;DHT22;14660;49.008;8.390;2023-02-21T08:29:52;9.20;99.90
27128;DHT22;14660;49.008;8.390;2023-02-21T08:32:19;9.40;99.90
27128;DHT22;14660;49.008;8.390;2023-02-21T08:34:47;9.40;99.90
27128;DHT22;14660;49.008;8.390;2023-02-21T08:37:14;9.50;99.90
27128;DHT22;14660;49.008;8.390;2023-02-21T08:39:48;9.60;99.90
27128;DHT22;14660;49.008;8.390;2023-02-21T08:42:18;9.70;99.90
27128;DHT22;14660;49.008;8.390;2023-02-21T08:44:48;9.80;99.90
27128;DHT22;14660;49.008;8.390;2023-02-21T08:47:16;9.80;99.90
27128;DHT22;14660;49.008;8.390;2023-02-21T08:49:47;10.00;99.90
27128;DHT22;14660;49.008;8.390;2023-02-21T08:52:15;9.90;99.90
27128;DHT22;14660;49.008;8.390;2023-02-21T08:54:44;9.90;99.90
27128;DHT22;14660;49.008;8.390;2023-02-21T08:57:12;10.00;99.90
27128;DHT22;14660;49.008;8.390;2023-02-21T08:59:43;10.10;99.90
27128;DHT22;14660;49.008;8.390;2023-02-21T09:02:29;10.20;99.90
27128;DHT22;14660;49.008;8.390;2023-02-21T09:04:58;10.20;99.90
27128;DHT22;14660;49.008;8.390;2023-02-21T09:07:25;10.20;99.90
27128;DHT22;14660;49.008;8.390;2023-02-21T09:09:54;10.40;99.90
27128;DHT22;14660;49.008;8.390;2023-02-21T09:12:21;10.50;99.90
27128;DHT22;14660;49.008;8.390;2023-02-21T09:14:48;10.50;99.90
27128;DHT22;14660;49.008;8.390;2023-02-21T09:17:15;10.60;99.90
27128;DHT22;14660;49.008;8.390;2023-02-21T09:19:41;10.60;99.90
27128;DHT22;14660;49.008;8.390;2023-02-21T09:22:13;10.70;99.90
27128;DHT22;14660;49.008;8.390;2023-02-21T09:24:40;10.80;99.90
27128;DHT22;14660;49.008;8.390;2023-02-21T09:27:07;10.80;99.90
27128;DHT22;14660;49.008;8.390;2023-02-21T09:29:35;10.80;99.90
27128;DHT22;14660;49.008;8.390;2023-02-21T09:32:03;10.80;99.90
27128;DHT22;14660;49.008;8.390;2023-02-21T09:34:30;10.90;99.90
27128;DHT22;14660;49.008;8.390;2023-02-21T09:36:57;10.80;99.90
27128;DHT22;14660;49.008;8.390;2023-02-21T09:39:25;10.90;99.90
27128;DHT22;14660;49.008;8.390;2023-02-21T09:41:51;10.80;99.90
27128;DHT22;14660;49.008;8.390;2023-02-21T09:44:28;10.90;99.90
27128;DHT22;14660;49.008;8.390;2023-02-21T09:47:01;11.00;99.90
27128;DHT22;14660;49.008;8.390;2023-02-21T09:49:47;11.00;99.90
27128;DHT22;14660;49.008;8.390;2023-02-21T09:52:43;11.00;99.90
27128;DHT22;14660;49.008;8.390;2023-02-21T09:58:18;11.10;99.90
27128;DHT22;14660;49.008;8.390;2023-02-21T10:00:45;11.10;99.90
27128;DHT22;14660;49.008;8.390;2023-02-21T10:03:43;11.20;99.90
27128;DHT22;14660;49.008;8.390;2023-02-21T10:09:37;11.30;99.90
27128;DHT22;14660;49.008;8.390;2023-02-21T10:15:39;11.40;99.90
27128;DHT22;14660;49.008;8.390;2023-02-21T10:21:31;11.40;99.90
27128;DHT22;14660;49.008;8.390;2023-02-21T10:24:04;11.40;99.90
27128;DHT22;14660;49.008;8.390;2023-02-21T10:26:37;11.50;99.90
27128;DHT22;14660;49.008;8.390;2023-02-21T10:29:29;11.50;99.90
27128;DHT22;14660;49.008;8.390;2023-02-21T10:32:01;11.50;99.90
27128;DHT22;14660;49.008;8.390;2023-02-21T10:34:31;11.60;99.90
27128;DHT22;14660;49.008;8.390;2023-02-21T10:37:24;11.70;99.90
27128;DHT22;14660;49.008;8.390;2023-02-21T10:40:23;11.70;99.90
27128;DHT22;14660;49.008;8.390;2023-02-21T10:42:51;11.70;99.90
27128;DHT22;14660;49.008;8.390;2023-02-21T10:45:29;11.70;99.90
27128;DHT22;14660;49.008;8.390;2023-02-21T10:48:17;11.70;99.90
27128;DHT22;14660;49.008;8.390;2023-02-21T10:53:52;11.80;99.90
27128;DHT22;14660;49.008;8.390;2023-02-21T10:56:22;11.90;99.90
27128;DHT22;14660;49.008;8.390;2023-02-21T10:59:08;12.00;99.90
27128;DHT22;14660;49.008;8.390;2023-02-21T11:01:45;12.00;99.90
27128;DHT22;14660;49.008;8.390;2023-02-21T11:04:31;12.10;99.90
27128;DHT22;14660;49.008;8.390;2023-02-21T11:07:19;12.10;99.90
27128;DHT22;14660;49.008;8.390;2023-02-21T11:09:47;12.10;99.90
27128;DHT22;14660;49.008;8.390;2023-02-21T11:12:26;12.10;99.90
27128;DHT22;14660;49.008;8.390;2023-02-21T11:15:16;12.10;99.90
27128;DHT22;14660;49.008;8.390;2023-02-21T11:17:45;12.20;99.90
27128;DHT22;14660;49.008;8.390;2023-02-21T11:20:20;12.30;99.90
27128;DHT22;14660;49.008;8.390;2023-02-21T11:22:50;12.30;99.90
27128;DHT22;14660;49.008;8.390;2023-02-21T11:25:39;12.40;99.90
27128;DHT22;14660;49.008;8.390;2023-02-21T11:28:25;12.40;99.90
27128;DHT22;14660;49.008;8.390;2023-02-21T11:33:51;12.40;99.90
27128;DHT22;14660;49.008;8.390;2023-02-21T11:36:26;12.40;99.90
27128;DHT22;14660;49.008;8.390;2023-02-21T11:42:02;12.40;99.90
27128;DHT22;14660;49.008;8.390;2023-02-21T11:53:06;12.50;99.90
27128;DHT22;14660;49.008;8.390;2023-02-21T11:55:38;12.60;99.90
27128;DHT22;14660;49.008;8.390;2023-02-21T11:58:31;12.60;99.90
27128;DHT22;14660;49.008;8.390;2023-02-21T12:01:45;12.60;99.90
27128;DHT22;14660;49.008;8.390;2023-02-21T12:55:22;13.10;99.90
27128;DHT22;14660;49.008;8.390;2023-02-21T13:01:14;13.30;99.90
27128;DHT22;14660;49.008;8.390;2023-02-21T13:06:41;13.30;99.90
27128;DHT22;14660;49.008;8.390;2023-02-21T13:09:47;13.40;99.90
27128;DHT22;14660;49.008;8.390;2023-02-21T13:12:19;13.40;99.90
27128;DHT22;14660;49.008;8.390;2023-02-21T13:14:50;13.50;99.90
27128;DHT22;14660;49.008;8.390;2023-02-21T13:17:20;13.50;99.90
27128;DHT22;14660;49.008;8.390;2023-02-21T13:20:00;13.60;99.90
27128;DHT22;14660;49.008;8.390;2023-02-21T13:28:56;13.60;99.90
27128;DHT22;14660;49.008;8.390;2023-02-21T13:31:34;13.70;99.90
27128;DHT22;14660;49.008;8.390;2023-02-21T13:34:08;13.70;99.90
27128;DHT22;14660;49.008;8.390;2023-02-21T13:36:59;13.80;99.90
27128;DHT22;14660;49.008;8.390;2023-02-21T13:39:28;13.80;99.90
27128;DHT22;14660;49.008;8.390;2023-02-21T13:42:07;13.80;99.90
27128;DHT22;14660;49.008;8.390;2023-02-21T13:44:42;13.70;99.90
27128;DHT22;14660;49.008;8.390;2023-02-21T13:47:17;13.80;99.90
27128;DHT22;14660;49.008;8.390;2023-02-21T13:49:48;13.80;99.90
27128;DHT22;14660;49.008;8.390;2023-02-21T13:52:36;13.90;99.90
27128;DHT22;14660;49.008;8.390;2023-02-21T13:55:35;13.90;99.90
27128;DHT22;14660;49.008;8.390;2023-02-21T14:01:37;13.90;99.90
27128;DHT22;14660;49.008;8.390;2023-02-21T14:13:51;14.00;99.90
27128;DHT22;14660;49.008;8.390;2023-02-21T14:22:27;13.90;99.90
27128;DHT22;14660;49.008;8.390;2023-02-21T14:25:15;14.00;99.90
27128;DHT22;14660;49.008;8.390;2023-02-21T14:27:43;14.00;99.90
27128;DHT22;14660;49.008;8.390;2023-02-21T14:33:41;13.90;99.90
27128;DHT22;14660;49.008;8.390;2023-02-21T14:36:07;13.90;99.90
27128;DHT22;14660;49.008;8.390;2023-02-21T14:38:40;13.90;99.90
27128;DHT22;14660;49.008;8.390;2023-02-21T14:41:35;13.90;99.90
27128;DHT22;14660;49.008;8.390;2023-02-21T14:47:39;14.10;99.90
27128;DHT22;14660;49.008;8.390;2023-02-21T15:08:26;14.00;99.90
27128;DHT22;14660;49.008;8.390;2023-02-21T15:10:59;14.00;99.90
27128;DHT22;14660;49.008;8.390;2023-02-21T15:13:46;14.00;99.90
27128;DHT22;14660;49.008;8.390;2023-02-21T15:16:13;14.00;99.90
27128;DHT22;14660;49.008;8.390;2023-02-21T15:18:57;14.10;99.90
27128;DHT22;14660;49.008;8.390;2023-02-21T15:21:25;14.10;99.90
27128;DHT22;14660;49.008;8.390;2023-02-21T15:24:12;14.00;99.90
27128;DHT22;14660;49.008;8.390;2023-02-21T15:26:40;14.00;99.90
27128;DHT22;14660;49.008;8.390;2023-02-21T15:29:25;14.00;99.90
27128;DHT22;14660;49.008;8.390;2023-02-21T15:31:54;14.00;99.90
27128;DHT22;14660;49.008;8.390;2023-02-21T15:34:38;14.00;99.90
27128;DHT22;14660;49.008;8.390;2023-02-21T15:37:23;14.00;99.90
27128;DHT22;14660;49.008;8.390;2023-02-21T15:39:59;13.90;99.90
27128;DHT22;14660;49.008;8.390;2023-02-21T15:42:30;13.90;99.90
27128;DHT22;14660;49.008;8.390;2023-02-21T15:45:04;13.90;99.90
27128;DHT22;14660;49.008;8.390;2023-02-21T15:47:33;13.80;99.90
27128;DHT22;14660;49.008;8.390;2023-02-21T15:52:47;13.80;99.90
27128;DHT22;14660;49.008;8.390;2023-02-21T15:55:35;13.80;99.90
27128;DHT22;14660;49.008;8.390;2023-02-21T15:58:25;13.80;99.90
27128;DHT22;14660;49.008;8.390;2023-02-21T16:01:10;13.80;99.90
27128;DHT22;14660;49.008;8.390;2023-02-21T16:04:12;13.80;99.90
27128;DHT22;14660;49.008;8.390;2023-02-21T16:06:56;13.80;99.90
27128;DHT22;14660;49.008;8.390;2023-02-21T16:09:44;13.80;99.90
27128;DHT22;14660;49.008;8.390;2023-02-21T16:15:35;13.80;99.90
27128;DHT22;14660;49.008;8.390;2023-02-21T16:18:08;13.80;99.90
27128;DHT22;14660;49.008;8.390;2023-02-21T16:20:59;13.80;99.90
27128;DHT22;14660;49.008;8.390;2023-02-21T16:23:40;13.80;99.90
27128;DHT22;14660;49.008;8.390;2023-02-21T16:28:56;13.70;99.90
27128;DHT22;14660;49.008;8.390;2023-02-21T16:31:44;13.70;99.90
27128;DHT22;14660;49.008;8.390;2023-02-21T16:34:12;13.70;99.90
27128;DHT22;14660;49.008;8.390;2023-02-21T16:36:39;13.70;99.90
27128;DHT22;14660;49.008;8.390;2023-02-21T16:39:08;13.70;99.90
27128;DHT22;14660;49.008;8.390;2023-02-21T16:41:36;13.70;99.90
27128;DHT22;14660;49.008;8.390;2023-02-21T16:44:03;13.70;99.90
27128;DHT22;14660;49.008;8.390;2023-02-21T16:46:30;13.80;99.90
27128;DHT22;14660;49.008;8.390;2023-02-21T16:48:56;13.90;99.90
27128;DHT22;14660;49.008;8.390;2023-02-21T16:51:23;13.90;99.90
27128;DHT22;14660;49.008;8.390;2023-02-21T16:53:48;13.80;99.90
27128;DHT22;14660;49.008;8.390;2023-02-21T16:56:18;13.80;99.90
27128;DHT22;14660;49.008;8.390;2023-02-21T16:58:50;13.80;99.90
27128;DHT22;14660;49.008;8.390;2023-02-21T17:01:30;13.80;99.90
27128;DHT22;14660;49.008;8.390;2023-02-21T17:03:58;13.60;99.90
27128;DHT22;14660;49.008;8.390;2023-02-21T17:06:27;13.70;99.90
27128;DHT22;14660;49.008;8.390;2023-02-21T17:08:54;13.70;99.90
27128;DHT22;14660;49.008;8.390;2023-02-21T17:11:22;13.70;99.90
27128;DHT22;14660;49.008;8.390;2023-02-21T17:13:49;13.70;99.90
27128;DHT22;14660;49.008;8.390;2023-02-21T17:16:16;13.60;99.90
27128;DHT22;14660;49.008;8.390;2023-02-21T17:18:46;13.50;99.90
27128;DHT22;14660;49.008;8.390;2023-02-21T17:21:13;13.50;99.90
27128;DHT22;14660;49.008;8.390;2023-02-21T17:23:41;13.50;99.90
27128;DHT22;14660;49.008;8.390;2023-02-21T17:26:08;13.50;99.90
27128;DHT22;14660;49.008;8.390;2023-02-21T17:28:37;13.40;99.90
27128;DHT22;14660;49.008;8.390;2023-02-21T17:31:04;13.40;99.90
27128;DHT22;14660;49.008;8.390;2023-02-21T17:33:31;13.30;99.90
27128;DHT22;14660;49.008;8.390;2023-02-21T17:35:58;13.30;99.90
27128;DHT22;14660;49.008;8.390;2023-02-21T17:38:24;13.40;99.90
27128;DHT22;14660;49.008;8.390;2023-02-21T17:40:51;13.40;99.90
27128;DHT22;14660;49.008;8.390;2023-02-21T17:43:18;13.30;99.90
27128;DHT22;14660;49.008;8.390;2023-02-21T17:45:45;13.30;99.90
27128;DHT22;14660;49.008;8.390;2023-02-21T17:48:12;13.30;99.90
27128;DHT22;14660;49.008;8.390;2023-02-21T17:50:39;13.30;99.90
27128;DHT22;14660;49.008;8.390;2023-02-21T17:53:08;13.30;99.90
27128;DHT22;14660;49.008;8.390;2023-02-21T17:55:35;13.10;99.90
27128;DHT22;14660;49.008;8.390;2023-02-21T17:58:03;13.10;99.90
27128;DHT22;14660;49.008;8.390;2023-02-21T18:00:32;13.10;99.90
27128;DHT22;14660;49.008;8.390;2023-02-21T18:03:01;13.10;99.90
27128;DHT22;14660;49.008;8.390;2023-02-21T18:05:30;13.10;99.90
27128;DHT22;14660;49.008;8.390;2023-02-21T18:07:58;13.00;99.90
27128;DHT22;14660;49.008;8.390;2023-02-21T18:10:26;13.00;99.90
27128;DHT22;14660;49.008;8.390;2023-02-21T18:12:53;13.00;99.90
27128;DHT22;14660;49.008;8.390;2023-02-21T18:15:25;13.00;99.90
27128;DHT22;14660;49.008;8.390;2023-02-21T18:17:56;13.00;99.90
27128;DHT22;14660;49.008;8.390;2023-02-21T18:20:42;13.00;99.90
27128;DHT22;14660;49.008;8.390;2023-02-21T18:23:12;13.00;99.90
27128;DHT22;14660;49.008;8.390;2023-02-21T18:25:41;13.10;99.90
27128;DHT22;14660;49.008;8.390;2023-02-21T18:28:09;13.10;99.90
27128;DHT22;14660;49.008;8.390;2023-02-21T18:30:36;13.20;99.90
27128;DHT22;14660;49.008;8.390;2023-02-21T18:33:02;13.30;99.90
27128;DHT22;14660;49.008;8.390;2023-02-21T18:35:29;13.20;99.90
27128;DHT22;14660;49.008;8.390;2023-02-21T18:37:56;13.10;99.90
27128;DHT22;14660;49.008;8.390;2023-02-21T18:40:23;13.00;99.90
27128;DHT22;14660;49.008;8.390;2023-02-21T18:43:18;13.00;99.90
27128;DHT22;14660;49.008;8.390;2023-02-21T18:45:47;12.90;99.90
27128;DHT22;14660;49.008;8.390;2023-02-21T18:48:14;12.80;99.90
27128;DHT22;14660;49.008;8.390;2023-02-21T18:50:41;12.80;99.90
27128;DHT22;14660;49.008;8.390;2023-02-21T18:53:09;12.70;99.90
27128;DHT22;14660;49.008;8.390;2023-02-21T18:55:37;12.60;99.90
27128;DHT22;14660;49.008;8.390;2023-02-21T18:58:06;12.50;99.90
27128;DHT22;14660;49.008;8.390;2023-02-21T19:00:32;12.30;99.90
27128;DHT22;14660;49.008;8.390;2023-02-21T19:03:06;12.30;99.90
27128;DHT22;14660;49.008;8.390;2023-02-21T19:05:34;12.10;99.90
27128;DHT22;14660;49.008;8.390;2023-02-21T19:08:00;12.20;99.90
27128;DHT22;14660;49.008;8.390;2023-02-21T19:10:31;12.10;99.90
27128;DHT22;14660;49.008;8.390;2023-02-21T19:12:59;12.10;99.90
27128;DHT22;14660;49.008;8.390;2023-02-21T19:15:28;11.90;99.90
27128;DHT22;14660;49.008;8.390;2023-02-21T19:17:59;11.80;99.90
27128;DHT22;14660;49.008;8.390;2023-02-21T19:20:26;11.90;99.90
27128;DHT22;14660;49.008;8.390;2023-02-21T19:22:53;11.90;99.90
27128;DHT22;14660;49.008;8.390;2023-02-21T19:25:22;11.80;99.90